Time;durP1;ratioP1;P1;durP2;ratioP2;P2;SDS_P1;SDS_P2;PMS_P1;PMS_P2;Temp;Humidity;BMP_temperature;BMP_pressure;BME280_temperature;BME280_humidity;BME280_pressure;Samples;Min_cycle;Max_cycle;Signal;HPM_P1;HPM_P2
2022/08/08 00:00:12;;;;;;;7.32;3.55;;;21.30;90.00;;;;;;5051527;28;20035;-80
2022/08/08 00:02:46;;;;;;;6.32;4.00;;;21.20;90.10;;;;;;5053987;28;20033;-80
2022/08/08 00:05:38;;;;;;;5.22;3.58;;;21.20;90.10;;;;;;5064780;28;20025;-80
2022/08/08 00:08:23;;;;;;;5.72;3.55;;;21.20;90.20;;;;;;5052613;28;20045;-80
2022/08/08 00:11:09;;;;;;;5.95;3.17;;;21.20;90.20;;;;;;5054767;28;20044;-80
2022/08/08 00:13:51;;;;;;;7.20;3.40;;;21.10;90.30;;;;;;5054503;28;20036;-79
2022/08/08 00:16:43;;;;;;;5.55;3.40;;;21.10;90.30;;;;;;5045691;28;20120;-83
2022/08/08 00:19:32;;;;;;;6.75;3.30;;;21.10;90.30;;;;;;5039108;28;20036;-83
2022/08/08 00:22:08;;;;;;;7.15;2.97;;;21.00;90.30;;;;;;5054735;28;20029;-85
2022/08/08 00:24:41;;;;;;;5.53;3.05;;;21.00;90.40;;;;;;5055055;28;20028;-84
2022/08/08 00:27:10;;;;;;;6.55;3.25;;;21.00;90.30;;;;;;5040372;28;20381;-81
2022/08/08 00:30:03;;;;;;;6.35;3.30;;;20.90;90.30;;;;;;5041499;28;20065;-81
2022/08/08 00:32:52;;;;;;;7.32;3.58;;;20.90;90.40;;;;;;5039967;28;20026;-81
2022/08/08 00:38:50;;;;;;;7.55;3.30;;;20.80;90.60;;;;;;5048034;28;20441;-81
2022/08/08 00:41:47;;;;;;;7.78;4.05;;;20.80;90.70;;;;;;5048858;28;20045;-81
2022/08/08 00:45:01;;;;;;;6.40;3.42;;;20.70;90.80;;;;;;5034497;28;20036;-81
2022/08/08 00:47:39;;;;;;;4.97;3.30;;;20.70;91.40;;;;;;5024713;28;20109;-81
2022/08/08 00:50:32;;;;;;;5.75;3.40;;;20.60;91.10;;;;;;5035062;28;20037;-81
2022/08/08 00:53:22;;;;;;;189.35;18.15;;;20.60;91.10;;;;;;5064622;28;20508;-81
2022/08/08 00:56:10;;;;;;;17.52;3.80;;;20.60;91.30;;;;;;5046856;28;20107;-81
2022/08/08 00:58:57;;;;;;;11.73;4.07;;;20.50;91.40;;;;;;5054069;28;20052;-81
2022/08/08 01:01:34;;;;;;;33.75;4.97;;;20.50;91.60;;;;;;5033257;28;20013;-81
2022/08/08 01:04:32;;;;;;;8.02;3.33;;;20.50;91.70;;;;;;5037677;28;20390;-81
2022/08/08 01:07:32;;;;;;;15.02;3.67;;;20.50;91.90;;;;;;5024475;28;20487;-81
2022/08/08 01:10:12;;;;;;;5.97;3.13;;;20.40;91.80;;;;;;5033469;28;20029;-81
2022/08/08 01:13:03;;;;;;;6.88;3.70;;;20.40;91.80;;;;;;5051075;28;20426;-81
2022/08/08 01:15:47;;;;;;;5.75;3.45;;;20.30;91.80;;;;;;5037076;28;20021;-80
2022/08/08 01:18:31;;;;;;;10.55;4.55;;;20.30;91.80;;;;;;5014960;28;20101;-81
2022/08/08 01:21:38;;;;;;;5.18;3.33;;;20.30;92.00;;;;;;5046274;28;20028;-80
2022/08/08 01:27:55;;;;;;;6.65;3.60;;;20.20;92.10;;;;;;5039525;28;20028;-81
2022/08/08 01:30:32;;;;;;;6.35;3.30;;;20.20;92.20;;;;;;5046278;28;20052;-80
2022/08/08 01:33:41;;;;;;;6.72;3.58;;;20.10;92.30;;;;;;5047415;28;20102;-81
2022/08/08 01:36:19;;;;;;;8.32;3.53;;;20.10;92.40;;;;;;5026143;28;20028;-81
2022/08/08 01:38:48;;;;;;;6.22;3.70;;;20.10;92.50;;;;;;5039270;28;20025;-81
2022/08/08 01:41:30;;;;;;;6.22;3.83;;;20.00;92.50;;;;;;5027612;28;20025;-81
2022/08/08 01:44:34;;;;;;;6.10;3.78;;;20.00;92.60;;;;;;5052465;28;20029;-81
2022/08/08 01:47:25;;;;;;;7.65;3.78;;;20.00;92.70;;;;;;5044905;28;20040;-81
2022/08/08 01:50:11;;;;;;;6.18;3.90;;;19.90;92.60;;;;;;5020758;28;20030;-81
2022/08/08 01:53:02;;;;;;;7.90;3.70;;;19.90;92.70;;;;;;5033149;28;20482;-80
2022/08/08 01:55:52;;;;;;;7.30;3.60;;;19.90;92.70;;;;;;5032974;28;20084;-81
2022/08/08 01:58:26;;;;;;;6.03;4.00;;;19.90;92.70;;;;;;5020096;28;20470;-80
2022/08/08 02:01:05;;;;;;;9.48;4.47;;;19.80;92.70;;;;;;5046718;28;20064;-81
2022/08/08 02:04:12;;;;;;;9.15;3.60;;;19.80;92.70;;;;;;5047339;28;20028;-81
2022/08/08 02:06:56;;;;;;;7.65;4.18;;;19.70;92.90;;;;;;5046651;28;20064;-83
2022/08/08 02:09:48;;;;;;;7.63;3.70;;;19.70;93.00;;;;;;5033213;28;20028;-83
2022/08/08 02:12:24;;;;;;;7.15;4.60;;;19.70;93.10;;;;;;5021968;28;20065;-83
2022/08/08 02:15:08;;;;;;;8.60;4.28;;;19.60;93.20;;;;;;5035070;28;20032;-83
2022/08/08 02:17:48;;;;;;;5.70;4.07;;;19.60;93.20;;;;;;5043433;28;20025;-83
2022/08/08 02:20:27;;;;;;;7.95;4.40;;;19.50;93.20;;;;;;5051275;28;20017;-84
2022/08/08 02:23:09;;;;;;;8.90;4.40;;;19.60;93.30;;;;;;5041684;28;20026;-81
2022/08/08 02:25:50;;;;;;;7.75;4.35;;;19.50;93.30;;;;;;5026429;28;20124;-81
2022/08/08 02:28:16;;;;;;;;;;;19.50;93.30;;;;;;5052799;28;20029;-81
2022/08/08 02:31:23;;;;;;;6.65;4.10;;;19.40;93.40;;;;;;5039235;28;19905;-80
2022/08/08 02:34:00;;;;;;;7.18;4.60;;;19.40;93.40;;;;;;5015070;28;20046;-80
2022/08/08 02:36:43;;;;;;;9.30;4.47;;;19.40;93.70;;;;;;5033654;28;20049;-80
2022/08/08 02:39:50;;;;;;;8.85;4.40;;;19.30;93.80;;;;;;5032526;28;20021;-80
2022/08/08 02:42:39;;;;;;;10.25;4.50;;;19.30;93.90;;;;;;5029338;28;20070;-80
2022/08/08 02:45:40;;;;;;;6.50;3.92;;;19.20;93.80;;;;;;5038853;28;20025;-81
2022/08/08 02:48:44;;;;;;;11.23;4.65;;;19.20;93.80;;;;;;5021861;28;20026;-81
2022/08/08 02:51:19;;;;;;;6.68;4.10;;;19.20;94.00;;;;;;5030465;28;20097;-81
2022/08/08 02:54:12;;;;;;;9.38;3.83;;;19.10;94.00;;;;;;5033232;28;20123;-80
2022/08/08 02:56:57;;;;;;;6.20;3.95;;;19.10;94.40;;;;;;5032306;28;20033;-84
2022/08/08 03:00:14;;;;;;;6.72;4.30;;;19.10;94.20;;;;;;5018622;28;20017;-84
2022/08/08 03:03:17;;;;;;;7.03;4.20;;;19.00;94.30;;;;;;5033254;28;20021;-84
2022/08/08 03:06:06;;;;;;;8.30;4.40;;;19.00;94.30;;;;;;5032035;28;20382;-84
2022/08/08 03:09:05;;;;;;;6.72;4.25;;;19.00;94.40;;;;;;5032672;28;20434;-84
2022/08/08 03:11:53;;;;;;;7.95;4.20;;;19.00;94.50;;;;;;5020585;28;20029;-84
2022/08/08 03:15:00;;;;;;;10.68;4.00;;;18.90;94.60;;;;;;5032045;28;20021;-84
2022/08/08 03:17:39;;;;;;;8.90;3.65;;;18.90;94.30;;;;;;5029359;28;20045;-81
2022/08/08 03:20:05;;;;;;;8.07;4.07;;;18.80;94.10;;;;;;5032126;28;20018;-81
2022/08/08 03:22:33;;;;;;;8.23;4.18;;;18.80;94.00;;;;;;5032076;28;20028;-81
2022/08/08 03:25:05;;;;;;;7.70;4.70;;;18.80;94.10;;;;;;5031956;28;20025;-80
2022/08/08 03:27:36;;;;;;;5.97;3.58;;;18.80;94.20;;;;;;5031831;28;20120;-80
2022/08/08 03:30:10;;;;;;;6.93;4.00;;;18.70;94.00;;;;;;5033168;28;20021;-80
2022/08/08 03:33:21;;;;;;;5.93;3.90;;;18.70;93.90;;;;;;5031807;28;20025;-81
2022/08/08 03:35:27;;;;;;;5.78;4.15;;;18.70;94.20;;;;;;5028438;28;20034;-80
2022/08/08 03:37:53;;;;;;;6.28;3.75;;;18.60;94.40;;;;;;5031929;28;20025;-81
2022/08/08 03:40:20;;;;;;;7.13;4.15;;;18.60;94.50;;;;;;5032113;28;20083;-81
2022/08/08 03:42:47;;;;;;;6.93;3.83;;;18.60;94.60;;;;;;5035470;28;20030;-81
2022/08/08 03:45:21;;;;;;;8.02;3.72;;;18.60;94.70;;;;;;5035533;28;20044;-81
2022/08/08 03:47:58;;;;;;;7.85;3.80;;;18.60;94.80;;;;;;5016033;28;20034;-81
2022/08/08 03:50:25;;;;;;;8.07;4.15;;;18.60;94.80;;;;;;5034821;28;20083;-81
2022/08/08 03:52:52;;;;;;;8.93;4.18;;;18.50;94.90;;;;;;5021440;28;20039;-83
2022/08/08 03:55:19;;;;;;;7.55;4.43;;;18.50;94.90;;;;;;5044109;28;20073;-83
2022/08/08 03:57:52;;;;;;;5.82;3.75;;;18.50;95.10;;;;;;5048372;28;20017;-84
2022/08/08 04:00:21;;;;;;;9.77;4.20;;;18.50;95.20;;;;;;5036125;28;20021;-84
2022/08/08 04:02:55;;;;;;;9.73;4.05;;;18.40;95.30;;;;;;5049363;28;20561;-84
2022/08/08 04:05:23;;;;;;;7.57;4.40;;;18.40;95.40;;;;;;5047917;28;20096;-84
2022/08/08 04:07:49;;;;;;;6.65;3.90;;;18.40;95.60;;;;;;5041045;28;20075;-83
2022/08/08 04:10:15;;;;;;;7.45;4.35;;;18.40;95.60;;;;;;5038327;28;20029;-80
2022/08/08 04:12:40;;;;;;;7.38;4.53;;;18.30;95.60;;;;;;5038910;28;20032;-81
2022/08/08 04:15:07;;;;;;;7.60;4.18;;;18.30;95.70;;;;;;5056983;28;20021;-81
2022/08/08 04:17:32;;;;;;;7.78;4.00;;;18.30;95.70;;;;;;5043877;28;20030;-80
2022/08/08 04:19:59;;;;;;;10.80;4.25;;;18.30;95.70;;;;;;5038933;28;20032;-81
2022/08/08 04:22:26;;;;;;;8.68;4.22;;;18.30;96.90;;;;;;5056817;28;20130;-80
2022/08/08 04:24:53;;;;;;;7.45;4.13;;;18.20;96.80;;;;;;5035944;28;20026;-80
2022/08/08 04:27:19;;;;;;;6.60;4.18;;;18.20;96.60;;;;;;5036505;28;20542;-80
2022/08/08 04:29:46;;;;;;;7.20;4.45;;;18.20;96.50;;;;;;5033181;28;20112;-81
2022/08/08 04:32:13;;;;;;;7.82;4.75;;;18.20;96.10;;;;;;5019545;28;20075;-80
2022/08/08 04:34:42;;;;;;;7.63;4.43;;;18.10;96.20;;;;;;5033960;28;20056;-80
2022/08/08 04:37:08;;;;;;;6.80;4.40;;;18.10;96.80;;;;;;5057320;28;20044;-80
2022/08/08 04:39:34;;;;;;;8.98;4.32;;;18.10;96.90;;;;;;5039415;28;20036;-80
2022/08/08 04:42:00;;;;;;;7.78;4.75;;;18.10;96.90;;;;;;5039045;28;20029;-80
2022/08/08 04:44:25;;;;;;;7.68;4.18;;;18.00;96.60;;;;;;5046732;28;20032;-80
2022/08/08 04:46:51;;;;;;;8.23;4.53;;;18.00;96.40;;;;;;5035533;28;20125;-80
2022/08/08 04:49:17;;;;;;;6.95;4.70;;;18.00;96.50;;;;;;5039435;28;20421;-80
2022/08/08 04:51:43;;;;;;;7.30;4.50;;;18.00;96.60;;;;;;5024837;28;20034;-80
2022/08/08 04:54:09;;;;;;;11.20;5.55;;;17.90;96.60;;;;;;5031953;28;20096;-80
2022/08/08 04:56:34;;;;;;;5.88;4.10;;;17.90;96.70;;;;;;5031088;28;20078;-81
2022/08/08 04:59:00;;;;;;;9.80;4.68;;;17.90;96.80;;;;;;5024574;28;20017;-81
2022/08/08 05:01:26;;;;;;;7.85;4.40;;;17.90;96.90;;;;;;5037689;28;20471;-81
2022/08/08 05:03:52;;;;;;;6.32;4.28;;;17.90;97.20;;;;;;5040870;28;20034;-81
2022/08/08 05:06:17;;;;;;;7.88;4.72;;;17.90;97.40;;;;;;5055126;28;20029;-81
2022/08/08 05:08:45;;;;;;;19.88;4.75;;;17.90;97.60;;;;;;5058881;28;20037;-81
2022/08/08 05:11:13;;;;;;;8.02;4.22;;;17.90;97.80;;;;;;5042335;28;20075;-81
2022/08/08 05:13:40;;;;;;;17.65;4.60;;;17.90;98.00;;;;;;5037868;28;20056;-81
2022/08/08 05:16:06;;;;;;;14.00;4.30;;;17.90;98.00;;;;;;5037985;28;20028;-81
2022/08/08 05:18:32;;;;;;;13.15;4.32;;;17.90;98.20;;;;;;5028310;28;20382;-81
2022/08/08 05:21:02;;;;;;;5.78;3.70;;;17.90;98.30;;;;;;5036768;28;20022;-80
2022/08/08 05:23:27;;;;;;;6.35;3.95;;;17.90;98.40;;;;;;5062942;28;20033;-84
2022/08/08 05:25:53;;;;;;;7.28;3.83;;;17.90;98.50;;;;;;5035212;28;20030;-80
2022/08/08 05:28:19;;;;;;;6.78;3.60;;;17.90;98.60;;;;;;5036850;28;20535;-81
2022/08/08 05:30:45;;;;;;;7.43;3.70;;;17.90;98.70;;;;;;5053610;28;20025;-81
2022/08/08 05:33:11;;;;;;;4.82;3.17;;;18.00;98.80;;;;;;5036967;28;20017;-80
2022/08/08 05:35:40;;;;;;;8.93;3.22;;;18.00;98.90;;;;;;5036902;28;20082;-80
2022/08/08 05:38:06;;;;;;;5.13;2.97;;;18.00;99.00;;;;;;5053599;28;20492;-81
2022/08/08 05:40:33;;;;;;;6.15;3.03;;;18.00;99.10;;;;;;5061096;28;20037;-80
2022/08/08 05:43:09;;;;;;;6.15;2.78;;;18.00;99.20;;;;;;5048956;28;20397;-80
2022/08/08 05:45:36;;;;;;;3.95;2.60;;;18.10;99.30;;;;;;5054304;28;20056;-80
2022/08/08 05:48:03;;;;;;;5.75;2.55;;;18.10;99.40;;;;;;5052227;28;20029;-79
2022/08/08 05:50:30;;;;;;;7.93;2.83;;;18.10;99.50;;;;;;5040520;28;20025;-79
2022/08/08 05:52:56;;;;;;;3.97;2.22;;;18.20;99.60;;;;;;5023498;28;20482;-79
2022/08/08 05:55:22;;;;;;;4.45;2.80;;;18.20;99.70;;;;;;5035511;28;20482;-79
2022/08/08 05:57:51;;;;;;;5.18;2.33;;;18.20;99.70;;;;;;5030422;28;20155;-79
2022/08/08 06:00:17;;;;;;;4.25;2.08;;;18.30;99.70;;;;;;5046376;28;20052;-80
2022/08/08 06:05:33;;;;;;;3.75;2.00;;;18.30;99.80;;;;;;5036740;28;20036;-80
2022/08/08 06:08:00;;;;;;;2.47;1.85;;;18.30;99.80;;;;;;5046210;28;20095;-80
2022/08/08 06:10:31;;;;;;;5.07;1.95;;;18.40;99.70;;;;;;5032844;28;20112;-80
2022/08/08 06:12:58;;;;;;;3.10;1.70;;;18.40;99.70;;;;;;5032817;28;20069;-80
2022/08/08 06:15:25;;;;;;;8.40;1.90;;;18.40;99.70;;;;;;5013332;28;20049;-80
2022/08/08 06:17:52;;;;;;;5.25;1.80;;;18.40;99.70;;;;;;5014581;28;20040;-80
2022/08/08 06:20:33;;;;;;;3.63;1.67;;;18.50;99.70;;;;;;5039469;28;20132;-80
2022/08/08 06:22:58;;;;;;;;;;;18.50;99.90;;;;;;5016423;28;20026;-78
2022/08/08 06:25:25;;;;;;;3.25;1.73;;;18.50;99.60;;;;;;5030899;28;19915;-78
2022/08/08 06:27:53;;;;;;;3.90;1.80;;;18.60;99.60;;;;;;5033697;28;20030;-78
2022/08/08 06:30:20;;;;;;;3.40;1.63;;;18.60;99.60;;;;;;5031267;28;20021;-78
2022/08/08 06:32:53;;;;;;;5.22;1.70;;;18.60;99.60;;;;;;5033854;28;20030;-78
2022/08/08 06:35:20;;;;;;;4.63;1.55;;;18.60;99.60;;;;;;5032251;28;20110;-79
2022/08/08 06:37:51;;;;;;;3.58;1.42;;;18.70;99.70;;;;;;5032556;28;20017;-81
2022/08/08 06:40:18;;;;;;;3.47;1.50;;;18.70;99.80;;;;;;5034067;28;20052;-81
2022/08/08 06:42:55;;;;;;;4.75;1.90;;;18.80;99.90;;;;;;5036556;28;20513;-81
2022/08/08 06:45:22;;;;;;;2.92;1.55;;;18.80;99.90;;;;;;5018852;28;20025;-78
2022/08/08 06:47:49;;;;;;;4.88;1.75;;;18.80;99.90;;;;;;5064211;28;20420;-78
2022/08/08 06:50:15;;;;;;;4.22;1.83;;;18.90;99.90;;;;;;5033003;28;20033;-82
2022/08/08 06:52:42;;;;;;;4.00;1.65;;;18.90;99.90;;;;;;5012865;28;20033;-81
2022/08/08 06:55:08;;;;;;;5.93;2.00;;;19.00;99.90;;;;;;5030503;28;20037;-81
2022/08/08 06:57:34;;;;;;;6.88;1.55;;;19.00;99.90;;;;;;5015969;28;20030;-83
2022/08/08 07:00:01;;;;;;;4.30;1.77;;;19.10;99.90;;;;;;5015926;28;20064;-83
2022/08/08 07:02:30;;;;;;;3.75;1.50;;;19.10;99.90;;;;;;5032240;28;20026;-77
2022/08/08 07:05:04;;;;;;;3.30;1.80;;;19.20;99.90;;;;;;5032099;28;20028;-79
2022/08/08 07:07:56;;;;;;;3.15;1.50;;;19.20;99.90;;;;;;5032056;28;20527;-78
2022/08/08 07:10:24;;;;;;;4.47;1.92;;;19.30;99.90;;;;;;5032068;28;20398;-78
2022/08/08 07:13:01;;;;;;;3.35;1.63;;;19.30;99.90;;;;;;5015551;28;20045;-79
2022/08/08 07:15:43;;;;;;;2.70;1.67;;;19.40;99.90;;;;;;5032166;28;20025;-81
2022/08/08 07:18:10;;;;;;;3.22;1.60;;;19.50;99.90;;;;;;5037272;28;20414;-81
2022/08/08 07:20:38;;;;;;;3.50;1.60;;;19.50;99.90;;;;;;5035640;28;20067;-81
2022/08/08 07:23:07;;;;;;;4.00;1.65;;;19.60;99.90;;;;;;5019012;28;20390;-81
2022/08/08 07:25:37;;;;;;;3.47;1.80;;;19.60;99.90;;;;;;5036171;28;20532;-81
2022/08/08 07:28:07;;;;;;;;;;;19.70;99.90;;;;;;5036572;28;20037;-80
2022/08/08 07:30:33;;;;;;;5.30;1.65;;;19.80;99.80;;;;;;5036184;28;19905;-80
2022/08/08 07:32:59;;;;;;;4.70;1.60;;;19.80;99.80;;;;;;5019758;28;20029;-83
2022/08/08 07:35:27;;;;;;;3.50;1.80;;;19.90;99.90;;;;;;5016070;28;20018;-83
2022/08/08 07:37:55;;;;;;;5.15;1.67;;;20.00;99.80;;;;;;5031261;28;20104;-80
2022/08/08 07:40:21;;;;;;;4.00;2.00;;;20.00;99.70;;;;;;5026234;28;20018;-84
2022/08/08 07:42:51;;;;;;;4.38;1.83;;;20.10;99.70;;;;;;5035750;28;20033;-83
2022/08/08 07:45:16;;;;;;;4.28;1.77;;;20.20;99.50;;;;;;5016306;28;20116;-84
2022/08/08 07:47:43;;;;;;;4.82;1.80;;;20.30;99.30;;;;;;5029893;28;20108;-85
2022/08/08 07:50:09;;;;;;;2.97;1.67;;;20.30;99.10;;;;;;5035404;28;20014;-84
2022/08/08 07:52:35;;;;;;;4.65;1.70;;;20.40;99.00;;;;;;5019205;28;20068;-85
2022/08/08 07:55:08;;;;;;;6.28;1.70;;;20.50;99.00;;;;;;5035129;28;20049;-84
2022/08/08 07:57:45;;;;;;;4.28;1.70;;;20.60;98.90;;;;;;5036556;28;20025;-85
2022/08/08 08:00:13;;;;;;;4.05;1.40;;;20.60;98.90;;;;;;5036464;28;20017;-84
2022/08/08 08:02:43;;;;;;;2.95;1.65;;;20.70;98.80;;;;;;5019169;28;20547;-85
2022/08/08 08:05:22;;;;;;;2.88;1.60;;;20.80;98.70;;;;;;5036378;28;20028;-85
2022/08/08 08:07:53;;;;;;;4.10;1.60;;;20.80;98.40;;;;;;5035188;28;20029;-85
2022/08/08 08:10:19;;;;;;;2.47;1.52;;;20.90;98.20;;;;;;5035105;28;20033;-85
2022/08/08 08:13:19;;;;;;;5.40;1.38;;;21.00;98.00;;;;;;5035126;28;20038;-85
2022/08/08 08:16:00;;;;;;;1.95;1.25;;;21.10;98.00;;;;;;5023609;28;20022;-85
2022/08/08 08:18:46;;;;;;;3.58;1.50;;;21.20;97.90;;;;;;5036431;28;20021;-85
2022/08/08 08:21:14;;;;;;;2.95;1.30;;;21.30;97.80;;;;;;5018448;28;20471;-85
2022/08/08 08:23:40;;;;;;;3.28;1.40;;;21.40;97.50;;;;;;5034592;28;20021;-84
2022/08/08 08:26:06;;;;;;;5.85;1.70;;;21.40;97.20;;;;;;5014632;28;20033;-85
2022/08/08 08:28:32;;;;;;;2.75;1.60;;;21.50;97.10;;;;;;5031789;28;20501;-84
2022/08/08 08:31:03;;;;;;;2.30;1.30;;;21.50;97.00;;;;;;5018368;28;20029;-84
2022/08/08 08:33:29;;;;;;;2.90;1.48;;;21.60;96.80;;;;;;5034727;28;20020;-84
2022/08/08 08:35:55;;;;;;;3.58;1.30;;;21.70;96.60;;;;;;5035849;28;20025;-84
2022/08/08 08:38:20;;;;;;;2.58;1.48;;;21.80;96.30;;;;;;5014884;28;20085;-84
2022/08/08 08:40:46;;;;;;;2.05;1.20;;;21.90;96.20;;;;;;5028142;28;20108;-84
2022/08/08 08:43:13;;;;;;;2.50;1.42;;;21.90;96.10;;;;;;5035785;28;20068;-85
2022/08/08 08:45:41;;;;;;;3.20;1.30;;;22.00;96.10;;;;;;5034567;28;20029;-84
2022/08/08 08:48:08;;;;;;;5.28;1.23;;;22.10;95.80;;;;;;5014662;28;20021;-84
2022/08/08 08:50:36;;;;;;;3.15;1.40;;;22.10;95.60;;;;;;5041072;28;20029;-84
2022/08/08 08:53:04;;;;;;;2.30;1.10;;;22.20;95.40;;;;;;5034162;28;20021;-84
2022/08/08 08:55:35;;;;;;;2.50;1.20;;;22.30;95.30;;;;;;5033947;28;20053;-85
2022/08/08 08:58:02;;;;;;;3.28;0.93;;;22.30;95.20;;;;;;5034789;28;20026;-84
2022/08/08 09:00:29;;;;;;;3.50;1.20;;;22.40;95.10;;;;;;5034171;28;20029;-84
2022/08/08 09:02:57;;;;;;;2.72;1.40;;;22.40;95.00;;;;;;5017558;28;20036;-81
2022/08/08 09:05:39;;;;;;;2.80;1.27;;;22.50;94.50;;;;;;5020055;28;20013;-80
2022/08/08 09:08:07;;;;;;;3.03;1.00;;;22.60;94.20;;;;;;5031732;28;20032;-80
2022/08/08 09:10:38;;;;;;;4.53;0.90;;;22.70;94.00;;;;;;5033417;28;20021;-80
2022/08/08 09:13:05;;;;;;;1.40;1.00;;;22.70;94.00;;;;;;5038324;28;20425;-80
2022/08/08 09:15:31;;;;;;;4.15;1.17;;;22.80;93.90;;;;;;5042608;28;20103;-80
2022/08/08 09:17:57;;;;;;;2.05;0.90;;;22.80;93.70;;;;;;5035467;28;20467;-80
2022/08/08 09:20:26;;;;;;;1.85;1.10;;;22.90;93.60;;;;;;5047832;28;20025;-81
2022/08/08 09:22:53;;;;;;;2.25;1.00;;;23.00;93.60;;;;;;5034026;28;20113;-81
2022/08/08 09:25:20;;;;;;;1.75;0.80;;;23.10;93.40;;;;;;5033954;28;20029;-80
2022/08/08 09:27:46;;;;;;;3.28;0.80;;;23.10;93.10;;;;;;5033570;28;20358;-80
2022/08/08 09:30:13;;;;;;;6.95;1.50;;;23.20;92.80;;;;;;5016844;28;20029;-80
2022/08/08 09:32:50;;;;;;;5.50;0.98;;;23.20;92.70;;;;;;5033495;28;20029;-80
2022/08/08 09:35:19;;;;;;;5.80;1.00;;;23.30;92.70;;;;;;5032060;28;20437;-80
2022/08/08 09:37:53;;;;;;;2.75;0.85;;;23.40;92.60;;;;;;5050872;28;20107;-80
2022/08/08 09:40:24;;;;;;;3.40;0.90;;;23.40;92.40;;;;;;5041736;28;20044;-85
2022/08/08 09:42:55;;;;;;;1.95;0.95;;;23.50;92.20;;;;;;5042928;28;20017;-85
2022/08/08 09:45:30;;;;;;;1.27;0.80;;;23.50;91.70;;;;;;5041614;28;20021;-81
2022/08/08 09:48:00;;;;;;;2.65;0.80;;;23.60;91.60;;;;;;5054086;28;20043;-81
2022/08/08 09:50:29;;;;;;;;;;;23.70;91.20;;;;;;5036645;28;20466;-80
2022/08/08 09:52:57;;;;;;;2.08;0.82;;;23.70;91.20;;;;;;5044091;22;20302;-80
2022/08/08 09:58:53;;;;;;;3.17;1.10;;;23.80;90.80;;;;;;5013071;28;20494;-80
2022/08/08 10:01:22;;;;;;;3.10;1.00;;;23.90;90.60;;;;;;5013191;28;20018;-80
2022/08/08 10:04:40;;;;;;;1.27;1.00;;;23.90;90.50;;;;;;5013272;28;20030;-80
2022/08/08 10:07:10;;;;;;;2.65;1.10;;;23.90;90.40;;;;;;5012173;28;20095;-81
2022/08/08 10:09:37;;;;;;;1.73;0.80;;;24.00;90.30;;;;;;4997372;28;20022;-80
2022/08/08 10:12:04;;;;;;;2.53;0.70;;;24.00;90.20;;;;;;4997126;28;20083;-80
2022/08/08 10:14:38;;;;;;;2.75;1.00;;;24.00;90.00;;;;;;4993308;28;20026;-81
2022/08/08 10:17:07;;;;;;;1.20;0.70;;;24.10;89.60;;;;;;4997109;28;20029;-80
2022/08/08 10:19:39;;;;;;;2.85;1.20;;;24.10;88.10;;;;;;5013140;28;20434;-80
2022/08/08 10:22:06;;;;;;;1.30;0.80;;;24.10;87.10;;;;;;5046830;28;20073;-79
2022/08/08 10:24:33;;;;;;;1.35;0.73;;;24.20;86.00;;;;;;4998380;28;20500;-81
2022/08/08 10:27:02;;;;;;;2.72;1.02;;;24.20;86.80;;;;;;5000691;28;20426;-85
2022/08/08 10:30:07;;;;;;;1.38;0.82;;;24.20;87.30;;;;;;5020677;28;20045;-85
2022/08/08 10:32:40;;;;;;;10.00;1.33;;;24.30;87.00;;;;;;4942395;29;20031;-85
2022/08/08 10:35:11;;;;;;;2.38;0.98;;;24.30;86.20;;;;;;4958021;29;20125;-85
2022/08/08 10:37:40;;;;;;;2.22;1.13;;;24.30;84.60;;;;;;4981266;28;20471;-84
2022/08/08 10:40:14;;;;;;;1.63;0.93;;;24.30;84.00;;;;;;5017444;28;20143;-85
2022/08/08 10:42:40;;;;;;;1.58;1.13;;;24.30;84.00;;;;;;5015350;28;20495;-84
2022/08/08 10:45:08;;;;;;;2.38;0.90;;;24.40;84.10;;;;;;5017347;28;20045;-84
2022/08/08 10:47:35;;;;;;;6.82;1.08;;;24.50;83.30;;;;;;5014398;28;20033;-84
2022/08/08 10:50:04;;;;;;;1.88;1.02;;;24.50;83.50;;;;;;5030229;28;20113;-85
2022/08/08 10:52:32;;;;;;;4.38;1.27;;;24.60;83.90;;;;;;5014244;28;20124;-85
2022/08/08 10:55:08;;;;;;;2.88;0.90;;;24.60;83.60;;;;;;5013095;28;20022;-85
2022/08/08 10:57:39;;;;;;;2.47;1.00;;;24.70;83.30;;;;;;5014340;28;20022;-85
2022/08/08 11:00:07;;;;;;;9.43;1.30;;;24.70;83.40;;;;;;4994126;28;20472;-85
2022/08/08 11:02:33;;;;;;;6.43;1.08;;;24.70;83.60;;;;;;4993689;28;20073;-85
2022/08/08 11:05:01;;;;;;;4.07;1.17;;;24.80;84.00;;;;;;5029442;28;20415;-85
2022/08/08 11:07:32;;;;;;;3.55;0.90;;;24.80;84.50;;;;;;5046048;28;20080;-85
2022/08/08 11:10:06;;;;;;;5.75;1.02;;;24.80;83.50;;;;;;5046079;28;20121;-85
2022/08/08 11:12:33;;;;;;;3.08;1.23;;;24.80;83.50;;;;;;4996983;28;20022;-85
2022/08/08 11:15:00;;;;;;;1.23;0.90;;;24.80;83.30;;;;;;5014026;28;20026;-85
2022/08/08 11:17:29;;;;;;;2.20;1.00;;;24.80;83.00;;;;;;5045925;28;20029;-85
2022/08/08 11:20:02;;;;;;;1.70;1.00;;;24.90;82.10;;;;;;5014317;28;20033;-85
2022/08/08 11:22:29;;;;;;;3.10;1.00;;;25.00;81.10;;;;;;4994929;28;20061;-85
2022/08/08 11:25:00;;;;;;;1.92;0.80;;;25.00;80.80;;;;;;5040095;28;20434;-85
2022/08/08 11:27:30;;;;;;;2.28;1.10;;;25.10;81.10;;;;;;5014615;28;20379;-85
2022/08/08 11:29:57;;;;;;;2.67;0.80;;;25.10;81.60;;;;;;5013068;28;20037;-86
2022/08/08 11:32:30;;;;;;;2.63;0.80;;;25.20;81.90;;;;;;5012863;28;20104;-85
2022/08/08 11:35:05;;;;;;;3.05;1.08;;;25.20;81.50;;;;;;5014266;28;20026;-84
2022/08/08 11:37:32;;;;;;;2.65;1.00;;;25.20;80.60;;;;;;5012528;28;20049;-85
2022/08/08 11:40:00;;;;;;;2.95;0.90;;;25.30;79.80;;;;;;4993011;28;20506;-86
2022/08/08 11:42:27;;;;;;;2.75;0.85;;;25.30;79.30;;;;;;5013594;28;20026;-86
2022/08/08 11:44:54;;;;;;;7.97;1.80;;;25.40;79.00;;;;;;5046397;28;20076;-86
2022/08/08 11:50:42;;;;;;;13.07;2.20;;;25.40;78.60;;;;;;5012604;28;20566;-85
2022/08/08 11:53:09;;;;;;;10.60;2.08;;;25.40;78.30;;;;;;4995422;28;20057;-84
2022/08/08 11:55:46;;;;;;;2.35;1.00;;;25.50;78.60;;;;;;5013318;28;20049;-84
2022/08/08 11:58:11;;;;;;;2.22;0.80;;;25.50;78.10;;;;;;5011390;28;20069;-83
2022/08/08 12:00:49;;;;;;;1.50;0.85;;;25.50;77.30;;;;;;4992698;28;20026;-84
2022/08/08 12:03:35;;;;;;;1.63;0.90;;;25.60;76.90;;;;;;5015321;28;20057;-84
2022/08/08 12:06:12;;;;;;;2.58;1.02;;;25.60;77.10;;;;;;5000497;28;20383;-84
2022/08/08 12:08:39;;;;;;;2.55;0.90;;;25.60;77.30;;;;;;5019508;28;20474;-80
2022/08/08 12:11:11;;;;;;;2.35;0.90;;;25.70;77.30;;;;;;5016017;28;20036;-79
2022/08/08 12:13:37;;;;;;;2.85;1.00;;;25.70;77.60;;;;;;5015742;28;20026;-80
2022/08/08 12:16:16;;;;;;;2.80;0.90;;;25.80;77.20;;;;;;4998895;28;20037;-80
2022/08/08 12:18:50;;;;;;;1.08;0.70;;;25.80;77.20;;;;;;5016648;28;20044;-80
2022/08/08 12:21:31;;;;;;;5.43;0.90;;;25.80;76.80;;;;;;4995781;28;20126;-80
2022/08/08 12:24:23;;;;;;;6.03;1.15;;;25.80;76.80;;;;;;5003943;28;20506;-79
2022/08/08 12:26:53;;;;;;;1.98;0.90;;;25.90;76.40;;;;;;5015165;28;20018;-79
2022/08/08 12:29:35;;;;;;;1.60;0.82;;;25.90;76.50;;;;;;5014969;28;20029;-79
2022/08/08 12:32:08;;;;;;;5.97;1.13;;;25.90;75.80;;;;;;5015853;28;20068;-79
2022/08/08 12:35:03;;;;;;;1.63;0.90;;;25.90;74.50;;;;;;5014684;28;20032;-79
2022/08/08 12:37:31;;;;;;;3.75;0.90;;;26.00;72.90;;;;;;5013873;28;20026;-79
2022/08/08 12:40:03;;;;;;;2.10;0.80;;;26.10;72.60;;;;;;5015955;28;20033;-79
2022/08/08 12:42:29;;;;;;;2.85;0.88;;;26.10;72.50;;;;;;5014779;28;20046;-79
2022/08/08 12:45:14;;;;;;;2.88;1.02;;;26.10;72.30;;;;;;5014580;28;20440;-79
2022/08/08 12:47:40;;;;;;;2.33;0.80;;;26.20;73.60;;;;;;5015284;28;20040;-79
2022/08/08 12:50:07;;;;;;;3.08;0.93;;;26.20;73.30;;;;;;5016796;28;20076;-81
2022/08/08 12:52:38;;;;;;;1.58;0.90;;;26.30;73.30;;;;;;5011737;28;20058;-81
2022/08/08 12:55:09;;;;;;;1.65;0.95;;;26.30;73.40;;;;;;5022323;28;20456;-81
2022/08/08 12:57:35;;;;;;;1.50;0.88;;;26.30;73.20;;;;;;5015724;28;20014;-80
2022/08/08 13:00:03;;;;;;;3.60;1.20;;;26.30;73.00;;;;;;5050158;28;20029;-85
2022/08/08 13:02:34;;;;;;;1.65;0.95;;;26.30;72.70;;;;;;5001279;28;20030;-85
2022/08/08 13:05:03;;;;;;;1.80;0.88;;;26.40;71.60;;;;;;5048520;28;20053;-85
2022/08/08 13:07:41;;;;;;;2.35;0.82;;;26.40;71.20;;;;;;5013948;28;20049;-85
2022/08/08 13:10:14;;;;;;;2.85;1.00;;;26.40;71.00;;;;;;5016239;28;20463;-85
2022/08/08 13:12:42;;;;;;;4.35;1.02;;;26.50;70.60;;;;;;5014976;28;20025;-84
2022/08/08 13:15:09;;;;;;;2.63;1.02;;;26.50;70.60;;;;;;5015184;28;20064;-85
2022/08/08 13:17:35;;;;;;;2.05;0.80;;;26.60;70.30;;;;;;5014883;28;20463;-84
2022/08/08 13:20:14;;;;;;;1.98;0.80;;;26.60;69.90;;;;;;5030242;28;20040;-84
2022/08/08 13:22:42;;;;;;;1.00;0.70;;;26.70;69.80;;;;;;5015475;28;20095;-84
2022/08/08 13:25:14;;;;;;;2.53;0.85;;;26.70;69.50;;;;;;5013828;28;20041;-85
2022/08/08 13:27:41;;;;;;;2.13;0.85;;;26.80;69.60;;;;;;5015030;28;20022;-85
2022/08/08 13:30:07;;;;;;;6.40;1.60;;;26.80;69.20;;;;;;5013669;28;20021;-82
2022/08/08 13:32:35;;;;;;;3.05;1.30;;;26.90;68.30;;;;;;4998178;28;20033;-82
2022/08/08 13:35:02;;;;;;;3.75;1.33;;;26.90;67.50;;;;;;5046751;28;20487;-82
2022/08/08 13:37:28;;;;;;;5.32;1.38;;;27.00;67.50;;;;;;5013757;28;20382;-81